sensor_id;sensor_type;location;lat;lon;timestamp;pressure;altitude;pressure_sealevel;temperature;humidity
64632;BME280;58358;50.936;0.246;2023-02-26T00:01:12;101531.30;;;-1.57;86.70
64632;BME280;58358;50.936;0.246;2023-02-26T00:03:35;101537.34;;;-0.99;86.64
64632;BME280;58358;50.936;0.246;2023-02-26T00:06:00;101538.97;;;-1.13;87.45
64632;BME280;58358;50.936;0.246;2023-02-26T00:08:25;101534.05;;;-1.78;89.17
64632;BME280;58358;50.936;0.246;2023-02-26T00:10:50;101530.50;;;-1.24;89.02
64632;BME280;58358;50.936;0.246;2023-02-26T00:13:16;101522.80;;;-1.15;89.12
64632;BME280;58358;50.936;0.246;2023-02-26T00:15:41;101521.85;;;-1.73;91.10
64632;BME280;58358;50.936;0.246;2023-02-26T00:18:08;101523.06;;;-1.71;90.26
64632;BME280;58358;50.936;0.246;2023-02-26T00:20:32;101522.74;;;-2.05;91.47
64632;BME280;58358;50.936;0.246;2023-02-26T00:22:57;101525.86;;;-1.68;91.38
64632;BME280;58358;50.936;0.246;2023-02-26T00:25:22;101521.22;;;-1.91;92.84
64632;BME280;58358;50.936;0.246;2023-02-26T00:27:47;101523.81;;;-1.66;92.47
64632;BME280;58358;50.936;0.246;2023-02-26T00:30:12;101530.03;;;-1.11;89.99
64632;BME280;58358;50.936;0.246;2023-02-26T00:32:38;101531.51;;;-2.03;90.94
64632;BME280;58358;50.936;0.246;2023-02-26T00:35:03;101535.92;;;-1.26;88.59
64632;BME280;58358;50.936;0.246;2023-02-26T00:37:42;101531.83;;;-1.59;90.81
64632;BME280;58358;50.936;0.246;2023-02-26T00:40:01;101531.02;;;-1.26;89.31
64632;BME280;58358;50.936;0.246;2023-02-26T00:42:18;101531.78;;;-2.24;93.90
64632;BME280;58358;50.936;0.246;2023-02-26T00:44:44;101536.87;;;-1.26;92.46
64632;BME280;58358;50.936;0.246;2023-02-26T00:47:14;101537.60;;;-1.44;90.88
64632;BME280;58358;50.936;0.246;2023-02-26T00:49:46;101540.72;;;-1.84;89.92
64632;BME280;58358;50.936;0.246;2023-02-26T00:52:01;101541.57;;;-1.76;91.68
64632;BME280;58358;50.936;0.246;2023-02-26T00:54:26;101543.18;;;-1.36;91.55
64632;BME280;58358;50.936;0.246;2023-02-26T00:56:50;101536.59;;;-1.88;92.75
64632;BME280;58358;50.936;0.246;2023-02-26T00:59:14;101545.38;;;-1.03;90.96
64632;BME280;58358;50.936;0.246;2023-02-26T01:01:40;101547.58;;;-1.14;91.27
64632;BME280;58358;50.936;0.246;2023-02-26T01:04:06;101552.68;;;-0.94;90.46
64632;BME280;58358;50.936;0.246;2023-02-26T01:06:33;101555.24;;;-1.67;91.81
64632;BME280;58358;50.936;0.246;2023-02-26T01:08:59;101562.32;;;-1.47;91.79
64632;BME280;58358;50.936;0.246;2023-02-26T01:11:21;101561.79;;;-0.97;91.36
64632;BME280;58358;50.936;0.246;2023-02-26T01:13:46;101555.85;;;-1.62;91.82
64632;BME280;58358;50.936;0.246;2023-02-26T01:16:13;101558.93;;;-1.06;89.53
64632;BME280;58358;50.936;0.246;2023-02-26T01:18:41;101556.28;;;-0.79;87.88
64632;BME280;58358;50.936;0.246;2023-02-26T01:21:04;101560.50;;;-1.23;88.63
64632;BME280;58358;50.936;0.246;2023-02-26T01:23:30;101561.75;;;-1.09;88.18
64632;BME280;58358;50.936;0.246;2023-02-26T01:25:54;101564.15;;;-0.80;87.99
64632;BME280;58358;50.936;0.246;2023-02-26T01:28:17;101565.17;;;-0.74;85.65
64632;BME280;58358;50.936;0.246;2023-02-26T01:30:42;101566.90;;;-1.24;88.46
64632;BME280;58358;50.936;0.246;2023-02-26T01:33:13;101567.34;;;-0.58;85.07
64632;BME280;58358;50.936;0.246;2023-02-26T01:35:40;101567.73;;;-0.39;82.39
64632;BME280;58358;50.936;0.246;2023-02-26T01:38:02;101573.62;;;-0.82;85.18
64632;BME280;58358;50.936;0.246;2023-02-26T01:40:34;101572.95;;;-1.52;87.23
64632;BME280;58358;50.936;0.246;2023-02-26T01:42:51;101570.82;;;-0.77;86.95
64632;BME280;58358;50.936;0.246;2023-02-26T01:45:16;101568.18;;;-1.84;88.99
64632;BME280;58358;50.936;0.246;2023-02-26T01:47:42;101565.27;;;-1.60;88.88
64632;BME280;58358;50.936;0.246;2023-02-26T01:50:11;101572.71;;;-1.11;88.67
64632;BME280;58358;50.936;0.246;2023-02-26T01:54:53;101576.69;;;-0.93;87.73
64632;BME280;58358;50.936;0.246;2023-02-26T01:57:20;101573.35;;;-0.59;86.12
64632;BME280;58358;50.936;0.246;2023-02-26T01:59:47;101570.63;;;-0.90;88.29
64632;BME280;58358;50.936;0.246;2023-02-26T02:02:10;101567.51;;;-1.44;90.02
64632;BME280;58358;50.936;0.246;2023-02-26T02:04:34;101562.57;;;-2.28;93.05
64632;BME280;58358;50.936;0.246;2023-02-26T02:06:59;101567.16;;;-1.96;93.09
64632;BME280;58358;50.936;0.246;2023-02-26T02:09:25;101574.63;;;-1.74;92.46
64632;BME280;58358;50.936;0.246;2023-02-26T02:12:01;101577.34;;;-1.63;92.85
64632;BME280;58358;50.936;0.246;2023-02-26T02:14:20;101580.05;;;-2.05;92.79
64632;BME280;58358;50.936;0.246;2023-02-26T02:16:47;101580.30;;;-2.14;93.15
64632;BME280;58358;50.936;0.246;2023-02-26T02:19:20;101585.55;;;-2.76;95.97
64632;BME280;58358;50.936;0.246;2023-02-26T02:21:42;101577.62;;;-2.76;94.52
64632;BME280;58358;50.936;0.246;2023-02-26T02:24:00;101574.90;;;-1.80;93.22
64632;BME280;58358;50.936;0.246;2023-02-26T02:26:40;101573.39;;;-1.66;91.88
64632;BME280;58358;50.936;0.246;2023-02-26T02:29:00;101571.99;;;-1.55;89.84
64632;BME280;58358;50.936;0.246;2023-02-26T02:31:16;101571.10;;;-1.17;88.12
64632;BME280;58358;50.936;0.246;2023-02-26T02:33:42;101570.12;;;-0.59;87.00
64632;BME280;58358;50.936;0.246;2023-02-26T02:36:06;101565.28;;;-1.02;86.72
64632;BME280;58358;50.936;0.246;2023-02-26T02:38:32;101562.13;;;-1.75;87.69
64632;BME280;58358;50.936;0.246;2023-02-26T02:40:57;101566.19;;;-1.60;87.97
64632;BME280;58358;50.936;0.246;2023-02-26T02:43:21;101564.23;;;-2.22;90.79
64632;BME280;58358;50.936;0.246;2023-02-26T02:45:46;101577.72;;;-0.54;85.92
64632;BME280;58358;50.936;0.246;2023-02-26T02:48:11;101576.89;;;-1.51;87.44
64632;BME280;58358;50.936;0.246;2023-02-26T02:50:36;101583.09;;;-0.71;85.49
64632;BME280;58358;50.936;0.246;2023-02-26T02:53:00;101581.26;;;-1.21;87.07
64632;BME280;58358;50.936;0.246;2023-02-26T02:55:26;101583.57;;;-0.18;84.32
64632;BME280;58358;50.936;0.246;2023-02-26T02:57:51;101582.76;;;-1.14;85.81
64632;BME280;58358;50.936;0.246;2023-02-26T03:00:15;101584.96;;;-1.08;85.51
64632;BME280;58358;50.936;0.246;2023-02-26T03:02:42;101583.48;;;-0.91;84.72
64632;BME280;58358;50.936;0.246;2023-02-26T03:05:04;101589.92;;;-1.00;84.47
64632;BME280;58358;50.936;0.246;2023-02-26T03:07:31;101584.12;;;-1.40;88.64
64632;BME280;58358;50.936;0.246;2023-02-26T03:09:54;101585.31;;;-2.36;91.32
64632;BME280;58358;50.936;0.246;2023-02-26T03:12:19;101588.17;;;-1.92;90.77
64632;BME280;58358;50.936;0.246;2023-02-26T03:14:45;101591.13;;;-1.91;92.95
64632;BME280;58358;50.936;0.246;2023-02-26T03:17:19;101597.41;;;-2.56;94.60
64632;BME280;58358;50.936;0.246;2023-02-26T03:19:39;101594.61;;;-2.47;94.47
64632;BME280;58358;50.936;0.246;2023-02-26T03:22:05;101601.42;;;-1.26;89.05
64632;BME280;58358;50.936;0.246;2023-02-26T03:24:31;101598.59;;;-1.24;88.86
64632;BME280;58358;50.936;0.246;2023-02-26T03:26:55;101597.90;;;-1.69;88.85
64632;BME280;58358;50.936;0.246;2023-02-26T03:29:21;101604.45;;;-2.57;92.41
64632;BME280;58358;50.936;0.246;2023-02-26T03:31:46;101607.03;;;-2.32;93.47
64632;BME280;58358;50.936;0.246;2023-02-26T03:34:08;101612.43;;;-2.81;93.93
64632;BME280;58358;50.936;0.246;2023-02-26T03:36:35;101614.43;;;-2.46;93.63
64632;BME280;58358;50.936;0.246;2023-02-26T03:39:00;101614.24;;;-2.14;92.18
64632;BME280;58358;50.936;0.246;2023-02-26T03:41:25;101619.03;;;-3.10;93.29
64632;BME280;58358;50.936;0.246;2023-02-26T03:43:50;101615.65;;;-2.21;94.19
64632;BME280;58358;50.936;0.246;2023-02-26T03:46:15;101619.44;;;-2.72;94.76
64632;BME280;58358;50.936;0.246;2023-02-26T03:48:36;101617.39;;;-2.29;93.05
64632;BME280;58358;50.936;0.246;2023-02-26T03:51:05;101612.56;;;-2.60;93.23
64632;BME280;58358;50.936;0.246;2023-02-26T03:53:30;101616.12;;;-2.50;95.42
64632;BME280;58358;50.936;0.246;2023-02-26T03:55:56;101614.52;;;-2.63;93.95
64632;BME280;58358;50.936;0.246;2023-02-26T03:58:17;101610.28;;;-1.66;90.75
64632;BME280;58358;50.936;0.246;2023-02-26T04:00:44;101617.59;;;-2.54;92.38
64632;BME280;58358;50.936;0.246;2023-02-26T04:03:11;101614.57;;;-2.39;91.44
64632;BME280;58358;50.936;0.246;2023-02-26T04:05:36;101624.66;;;-2.06;92.88
64632;BME280;58358;50.936;0.246;2023-02-26T04:07:58;101628.03;;;-2.22;92.15
64632;BME280;58358;50.936;0.246;2023-02-26T04:10:28;101631.71;;;-2.33;92.21
64632;BME280;58358;50.936;0.246;2023-02-26T04:12:48;101628.47;;;-2.43;92.98
64632;BME280;58358;50.936;0.246;2023-02-26T04:15:14;101629.80;;;-2.35;91.93
64632;BME280;58358;50.936;0.246;2023-02-26T04:17:38;101632.07;;;-2.29;91.48
64632;BME280;58358;50.936;0.246;2023-02-26T04:20:05;101633.40;;;-2.88;92.32
64632;BME280;58358;50.936;0.246;2023-02-26T04:22:29;101626.69;;;-2.17;91.04
64632;BME280;58358;50.936;0.246;2023-02-26T04:24:54;101630.23;;;-2.24;91.56
64632;BME280;58358;50.936;0.246;2023-02-26T04:27:19;101634.03;;;-2.49;90.79
64632;BME280;58358;50.936;0.246;2023-02-26T04:29:44;101635.35;;;-3.45;93.74
64632;BME280;58358;50.936;0.246;2023-02-26T04:32:09;101637.47;;;-2.31;92.89
64632;BME280;58358;50.936;0.246;2023-02-26T04:34:34;101639.87;;;-3.10;93.56
64632;BME280;58358;50.936;0.246;2023-02-26T04:37:00;101641.04;;;-2.80;94.59
64632;BME280;58358;50.936;0.246;2023-02-26T04:39:25;101641.41;;;-2.78;93.29
64632;BME280;58358;50.936;0.246;2023-02-26T04:41:50;101645.92;;;-2.23;92.58
64632;BME280;58358;50.936;0.246;2023-02-26T04:44:16;101650.60;;;-2.08;91.87
64632;BME280;58358;50.936;0.246;2023-02-26T04:46:41;101655.82;;;-1.67;89.05
64632;BME280;58358;50.936;0.246;2023-02-26T04:49:06;101662.12;;;-2.75;91.42
64632;BME280;58358;50.936;0.246;2023-02-26T04:51:32;101663.75;;;-2.35;91.87
64632;BME280;58358;50.936;0.246;2023-02-26T04:53:56;101666.03;;;-2.74;91.70
64632;BME280;58358;50.936;0.246;2023-02-26T04:56:22;101665.63;;;-1.97;89.34
64632;BME280;58358;50.936;0.246;2023-02-26T04:58:47;101669.14;;;-1.79;88.70
64632;BME280;58358;50.936;0.246;2023-02-26T05:01:12;101667.01;;;-2.25;89.94
64632;BME280;58358;50.936;0.246;2023-02-26T05:03:37;101674.18;;;-2.58;92.21
64632;BME280;58358;50.936;0.246;2023-02-26T05:06:02;101671.09;;;-2.37;92.66
64632;BME280;58358;50.936;0.246;2023-02-26T05:08:27;101676.91;;;-2.33;92.95
64632;BME280;58358;50.936;0.246;2023-02-26T05:10:53;101676.12;;;-2.30;91.01
64632;BME280;58358;50.936;0.246;2023-02-26T05:13:17;101681.21;;;-2.95;91.53
64632;BME280;58358;50.936;0.246;2023-02-26T05:15:43;101680.41;;;-1.96;89.88
64632;BME280;58358;50.936;0.246;2023-02-26T05:18:08;101678.03;;;-2.48;90.14
64632;BME280;58358;50.936;0.246;2023-02-26T05:20:34;101677.10;;;-2.30;91.74
64632;BME280;58358;50.936;0.246;2023-02-26T05:22:59;101683.37;;;-1.91;91.08
64632;BME280;58358;50.936;0.246;2023-02-26T05:25:24;101680.74;;;-1.96;87.21
64632;BME280;58358;50.936;0.246;2023-02-26T05:27:49;101683.01;;;-1.86;89.12
64632;BME280;58358;50.936;0.246;2023-02-26T05:30:16;101679.79;;;-1.97;89.00
64632;BME280;58358;50.936;0.246;2023-02-26T05:32:40;101679.80;;;-1.83;87.65
64632;BME280;58358;50.936;0.246;2023-02-26T05:35:05;101685.75;;;-1.21;86.59
64632;BME280;58358;50.936;0.246;2023-02-26T05:37:30;101688.89;;;-2.10;89.57
64632;BME280;58358;50.936;0.246;2023-02-26T05:39:55;101686.84;;;-2.34;90.65
64632;BME280;58358;50.936;0.246;2023-02-26T05:42:20;101685.96;;;-1.65;90.58
64632;BME280;58358;50.936;0.246;2023-02-26T05:44:45;101685.51;;;-1.69;88.47
64632;BME280;58358;50.936;0.246;2023-02-26T05:47:10;101688.22;;;-1.74;87.18
64632;BME280;58358;50.936;0.246;2023-02-26T05:49:35;101688.67;;;-2.91;91.64
64632;BME280;58358;50.936;0.246;2023-02-26T05:52:01;101689.05;;;-2.57;90.54
64632;BME280;58358;50.936;0.246;2023-02-26T05:54:26;101695.14;;;-2.11;90.58
64632;BME280;58358;50.936;0.246;2023-02-26T05:56:51;101699.01;;;-2.05;90.41
64632;BME280;58358;50.936;0.246;2023-02-26T05:59:17;101697.96;;;-1.77;89.44
64632;BME280;58358;50.936;0.246;2023-02-26T06:01:42;101695.97;;;-2.26;92.17
64632;BME280;58358;50.936;0.246;2023-02-26T06:04:07;101703.44;;;-3.01;95.67
64632;BME280;58358;50.936;0.246;2023-02-26T06:06:32;101699.09;;;-2.80;95.84
64632;BME280;58358;50.936;0.246;2023-02-26T06:08:58;101701.23;;;-2.46;94.45
64632;BME280;58358;50.936;0.246;2023-02-26T06:11:23;101710.52;;;-3.28;95.39
64632;BME280;58358;50.936;0.246;2023-02-26T06:13:48;101711.72;;;-2.48;94.17
64632;BME280;58358;50.936;0.246;2023-02-26T06:16:13;101718.86;;;-1.90;90.80
64632;BME280;58358;50.936;0.246;2023-02-26T06:18:38;101725.37;;;-2.30;92.31
64632;BME280;58358;50.936;0.246;2023-02-26T06:21:04;101729.29;;;-2.12;92.40
64632;BME280;58358;50.936;0.246;2023-02-26T06:23:29;101735.53;;;-2.36;92.27
64632;BME280;58358;50.936;0.246;2023-02-26T06:25:54;101742.92;;;-1.89;92.29
64632;BME280;58358;50.936;0.246;2023-02-26T06:28:19;101748.83;;;-2.16;91.67
64632;BME280;58358;50.936;0.246;2023-02-26T06:30:45;101735.47;;;-1.71;92.86
64632;BME280;58358;50.936;0.246;2023-02-26T06:33:09;101741.42;;;-2.31;94.13
64632;BME280;58358;50.936;0.246;2023-02-26T06:35:34;101746.11;;;-1.92;95.08
64632;BME280;58358;50.936;0.246;2023-02-26T06:37:59;101746.55;;;-2.32;96.68
64632;BME280;58358;50.936;0.246;2023-02-26T06:40:25;101751.98;;;-2.27;98.04
64632;BME280;58358;50.936;0.246;2023-02-26T06:42:50;101755.20;;;-1.56;94.52
64632;BME280;58358;50.936;0.246;2023-02-26T06:45:15;101758.22;;;-2.48;95.80
64632;BME280;58358;50.936;0.246;2023-02-26T06:47:40;101766.34;;;-1.30;93.34
64632;BME280;58358;50.936;0.246;2023-02-26T06:50:06;101774.16;;;-1.10;88.45
64632;BME280;58358;50.936;0.246;2023-02-26T06:52:30;101779.05;;;-1.72;90.26
64632;BME280;58358;50.936;0.246;2023-02-26T06:54:55;101782.69;;;-0.75;87.25
64632;BME280;58358;50.936;0.246;2023-02-26T06:57:20;101789.25;;;-1.33;85.95
64632;BME280;58358;50.936;0.246;2023-02-26T06:59:46;101793.92;;;-1.33;88.59
64632;BME280;58358;50.936;0.246;2023-02-26T07:02:15;101795.13;;;-0.53;84.44
64632;BME280;58358;50.936;0.246;2023-02-26T07:04:36;101799.64;;;-2.25;88.46
64632;BME280;58358;50.936;0.246;2023-02-26T07:07:01;101807.93;;;-1.77;89.44
64632;BME280;58358;50.936;0.246;2023-02-26T07:09:26;101813.17;;;-1.65;89.13
64632;BME280;58358;50.936;0.246;2023-02-26T07:11:51;101815.68;;;-1.53;92.02
64632;BME280;58358;50.936;0.246;2023-02-26T07:14:16;101827.93;;;-1.17;88.92
64632;BME280;58358;50.936;0.246;2023-02-26T07:16:41;101819.67;;;-1.66;88.30
64632;BME280;58358;50.936;0.246;2023-02-26T07:19:06;101824.83;;;-1.74;92.02
64632;BME280;58358;50.936;0.246;2023-02-26T07:21:31;101834.98;;;-1.77;93.22
64632;BME280;58358;50.936;0.246;2023-02-26T07:23:57;101843.05;;;-1.45;92.75
64632;BME280;58358;50.936;0.246;2023-02-26T07:26:22;101848.34;;;-1.92;92.59
64632;BME280;58358;50.936;0.246;2023-02-26T07:28:47;101858.57;;;-1.18;90.73
64632;BME280;58358;50.936;0.246;2023-02-26T07:31:12;101863.60;;;-1.31;91.27
64632;BME280;58358;50.936;0.246;2023-02-26T07:33:37;101868.87;;;-1.19;89.63
64632;BME280;58358;50.936;0.246;2023-02-26T07:36:03;101870.42;;;-0.93;89.27
64632;BME280;58358;50.936;0.246;2023-02-26T07:38:28;101871.23;;;-1.37;91.37
64632;BME280;58358;50.936;0.246;2023-02-26T07:40:54;101877.91;;;-0.87;89.48
64632;BME280;58358;50.936;0.246;2023-02-26T07:43:18;101878.68;;;-1.19;90.43
64632;BME280;58358;50.936;0.246;2023-02-26T07:45:44;101876.25;;;-1.79;91.66
64632;BME280;58358;50.936;0.246;2023-02-26T07:48:09;101882.68;;;-0.98;90.17
64632;BME280;58358;50.936;0.246;2023-02-26T07:50:35;101886.17;;;-0.43;89.36
64632;BME280;58358;50.936;0.246;2023-02-26T07:53:00;101884.66;;;-0.07;85.39
64632;BME280;58358;50.936;0.246;2023-02-26T07:55:25;101884.88;;;-0.52;86.44
64632;BME280;58358;50.936;0.246;2023-02-26T07:57:50;101885.96;;;-0.49;88.47
64632;BME280;58358;50.936;0.246;2023-02-26T08:00:16;101887.53;;;-0.56;87.94
64632;BME280;58358;50.936;0.246;2023-02-26T08:02:40;101892.43;;;-1.00;89.09
64632;BME280;58358;50.936;0.246;2023-02-26T08:05:05;101893.79;;;0.12;86.40
64632;BME280;58358;50.936;0.246;2023-02-26T08:07:30;101893.94;;;0.42;84.52
64632;BME280;58358;50.936;0.246;2023-02-26T08:09:56;101898.69;;;0.80;82.70
64632;BME280;58358;50.936;0.246;2023-02-26T08:12:21;101903.52;;;0.45;82.46
64632;BME280;58358;50.936;0.246;2023-02-26T08:14:46;101908.41;;;0.54;82.32
64632;BME280;58358;50.936;0.246;2023-02-26T08:17:11;101911.72;;;1.21;81.12
64632;BME280;58358;50.936;0.246;2023-02-26T08:19:36;101906.69;;;1.74;78.62
64632;BME280;58358;50.936;0.246;2023-02-26T08:22:02;101908.19;;;0.66;80.71
64632;BME280;58358;50.936;0.246;2023-02-26T08:24:27;101914.67;;;0.92;79.71
64632;BME280;58358;50.936;0.246;2023-02-26T08:26:52;101911.97;;;0.70;79.81
64632;BME280;58358;50.936;0.246;2023-02-26T08:29:19;101912.14;;;0.19;83.67
64632;BME280;58358;50.936;0.246;2023-02-26T08:31:43;101916.45;;;0.96;81.22
64632;BME280;58358;50.936;0.246;2023-02-26T08:34:09;101922.08;;;1.52;80.38
64632;BME280;58358;50.936;0.246;2023-02-26T08:36:34;101925.76;;;1.18;77.63
64632;BME280;58358;50.936;0.246;2023-02-26T08:38:59;101926.38;;;1.85;77.39
64632;BME280;58358;50.936;0.246;2023-02-26T08:41:24;101928.61;;;2.07;76.60
64632;BME280;58358;50.936;0.246;2023-02-26T08:43:50;101934.09;;;2.03;75.83
64632;BME280;58358;50.936;0.246;2023-02-26T08:46:16;101933.89;;;0.82;77.20
64632;BME280;58358;50.936;0.246;2023-02-26T08:48:41;101941.20;;;1.83;74.90
64632;BME280;58358;50.936;0.246;2023-02-26T08:51:07;101942.73;;;0.73;78.21
64632;BME280;58358;50.936;0.246;2023-02-26T08:53:32;101945.78;;;0.80;77.97
64632;BME280;58358;50.936;0.246;2023-02-26T08:55:58;101944.31;;;0.31;78.83
64632;BME280;58358;50.936;0.246;2023-02-26T08:58:24;101947.53;;;0.91;80.01
64632;BME280;58358;50.936;0.246;2023-02-26T09:00:49;101952.04;;;1.08;78.72
64632;BME280;58358;50.936;0.246;2023-02-26T09:03:14;101955.18;;;1.34;78.54
64632;BME280;58358;50.936;0.246;2023-02-26T09:05:39;101956.37;;;0.92;76.96
64632;BME280;58358;50.936;0.246;2023-02-26T09:08:05;101957.89;;;1.08;75.92
64632;BME280;58358;50.936;0.246;2023-02-26T09:10:30;101972.04;;;1.92;73.70
64632;BME280;58358;50.936;0.246;2023-02-26T09:12:56;101968.21;;;1.89;73.93
64632;BME280;58358;50.936;0.246;2023-02-26T09:15:22;101971.29;;;1.51;76.80
64632;BME280;58358;50.936;0.246;2023-02-26T09:17:48;101973.71;;;1.72;71.41
64632;BME280;58358;50.936;0.246;2023-02-26T09:20:13;101973.45;;;1.15;71.43
64632;BME280;58358;50.936;0.246;2023-02-26T09:22:39;101976.52;;;2.24;68.19
64632;BME280;58358;50.936;0.246;2023-02-26T09:25:05;101976.54;;;1.76;68.59
64632;BME280;58358;50.936;0.246;2023-02-26T09:27:29;101984.27;;;1.80;69.70
64632;BME280;58358;50.936;0.246;2023-02-26T09:29:54;101985.69;;;1.45;71.41
64632;BME280;58358;50.936;0.246;2023-02-26T09:32:20;101983.10;;;1.56;72.59
64632;BME280;58358;50.936;0.246;2023-02-26T09:34:45;101986.65;;;1.71;73.47
64632;BME280;58358;50.936;0.246;2023-02-26T09:37:11;101989.43;;;2.24;73.42
64632;BME280;58358;50.936;0.246;2023-02-26T09:39:37;101996.23;;;2.09;70.51
64632;BME280;58358;50.936;0.246;2023-02-26T09:42:08;101999.32;;;1.64;71.41
64632;BME280;58358;50.936;0.246;2023-02-26T09:44:30;101995.51;;;1.86;67.62
64632;BME280;58358;50.936;0.246;2023-02-26T09:46:59;102000.93;;;2.42;68.52
64632;BME280;58358;50.936;0.246;2023-02-26T09:49:27;101994.93;;;3.05;64.85
64632;BME280;58358;50.936;0.246;2023-02-26T09:51:48;101997.21;;;3.05;60.56
64632;BME280;58358;50.936;0.246;2023-02-26T09:54:15;102012.28;;;2.36;63.48
64632;BME280;58358;50.936;0.246;2023-02-26T09:56:35;102011.43;;;2.20;63.37
64632;BME280;58358;50.936;0.246;2023-02-26T09:59:01;102009.38;;;3.33;61.98
64632;BME280;58358;50.936;0.246;2023-02-26T10:01:32;102004.87;;;3.33;59.48
64632;BME280;58358;50.936;0.246;2023-02-26T10:04:02;102016.36;;;2.84;59.61
64632;BME280;58358;50.936;0.246;2023-02-26T10:06:23;102020.38;;;2.33;57.99
64632;BME280;58358;50.936;0.246;2023-02-26T10:08:49;102017.03;;;1.74;67.58
64632;BME280;58358;50.936;0.246;2023-02-26T10:11:13;102019.51;;;2.15;67.56
64632;BME280;58358;50.936;0.246;2023-02-26T10:13:36;102030.73;;;2.42;67.71
64632;BME280;58358;50.936;0.246;2023-02-26T10:16:08;102026.49;;;2.52;68.06
64632;BME280;58358;50.936;0.246;2023-02-26T10:18:28;102028.09;;;1.21;70.50
64632;BME280;58358;50.936;0.246;2023-02-26T10:20:54;102029.72;;;2.23;67.97
64632;BME280;58358;50.936;0.246;2023-02-26T10:23:22;102036.06;;;2.71;64.95
64632;BME280;58358;50.936;0.246;2023-02-26T10:25:46;102034.27;;;2.03;67.55
64632;BME280;58358;50.936;0.246;2023-02-26T10:28:21;102036.65;;;2.17;68.77
64632;BME280;58358;50.936;0.246;2023-02-26T10:30:36;102037.60;;;2.37;65.40
64632;BME280;58358;50.936;0.246;2023-02-26T10:33:06;102039.40;;;2.48;59.04
64632;BME280;58358;50.936;0.246;2023-02-26T10:35:26;102025.34;;;3.24;55.67
64632;BME280;58358;50.936;0.246;2023-02-26T10:37:54;102037.52;;;3.03;53.06
64632;BME280;58358;50.936;0.246;2023-02-26T10:40:18;102039.82;;;2.54;56.46
64632;BME280;58358;50.936;0.246;2023-02-26T10:42:44;102049.62;;;2.06;62.76
64632;BME280;58358;50.936;0.246;2023-02-26T10:45:21;102053.15;;;2.25;64.23
64632;BME280;58358;50.936;0.246;2023-02-26T10:47:40;102049.68;;;2.68;65.78
64632;BME280;58358;50.936;0.246;2023-02-26T10:50:01;102057.88;;;1.89;68.21
64632;BME280;58358;50.936;0.246;2023-02-26T10:52:24;102053.46;;;1.61;67.72
64632;BME280;58358;50.936;0.246;2023-02-26T10:55:02;102055.67;;;2.94;65.68
64632;BME280;58358;50.936;0.246;2023-02-26T10:57:19;102056.48;;;1.90;65.88
64632;BME280;58358;50.936;0.246;2023-02-26T10:59:39;102068.99;;;2.69;64.05
64632;BME280;58358;50.936;0.246;2023-02-26T11:02:19;102072.11;;;2.49;65.34
64632;BME280;58358;50.936;0.246;2023-02-26T11:04:30;102071.86;;;3.00;62.69
64632;BME280;58358;50.936;0.246;2023-02-26T11:06:57;102075.60;;;3.09;62.73
64632;BME280;58358;50.936;0.246;2023-02-26T11:09:24;102079.15;;;2.40;63.84
64632;BME280;58358;50.936;0.246;2023-02-26T11:11:50;102072.41;;;3.52;60.53
64632;BME280;58358;50.936;0.246;2023-02-26T11:14:12;102084.23;;;2.38;63.11
64632;BME280;58358;50.936;0.246;2023-02-26T11:16:46;102087.49;;;3.94;59.14
64632;BME280;58358;50.936;0.246;2023-02-26T11:19:04;102092.65;;;3.32;60.55
64632;BME280;58358;50.936;0.246;2023-02-26T11:21:33;102083.34;;;4.19;56.06
64632;BME280;58358;50.936;0.246;2023-02-26T11:24:00;102087.36;;;2.32;52.60
64632;BME280;58358;50.936;0.246;2023-02-26T11:26:25;102085.42;;;2.48;51.50
64632;BME280;58358;50.936;0.246;2023-02-26T11:28:47;102090.59;;;2.70;53.02
64632;BME280;58358;50.936;0.246;2023-02-26T11:31:14;102086.09;;;2.57;52.40
64632;BME280;58358;50.936;0.246;2023-02-26T11:33:38;102089.82;;;2.35;52.31
64632;BME280;58358;50.936;0.246;2023-02-26T11:36:07;102087.87;;;2.84;53.13
64632;BME280;58358;50.936;0.246;2023-02-26T11:38:28;102090.11;;;2.40;52.98
64632;BME280;58358;50.936;0.246;2023-02-26T11:40:54;102092.94;;;2.11;53.50
64632;BME280;58358;50.936;0.246;2023-02-26T11:43:19;102096.66;;;2.16;52.99
64632;BME280;58358;50.936;0.246;2023-02-26T11:45:45;102092.13;;;1.93;53.63
64632;BME280;58358;50.936;0.246;2023-02-26T11:48:14;102099.27;;;1.58;55.80
64632;BME280;58358;50.936;0.246;2023-02-26T11:50:41;102101.37;;;1.58;55.49
64632;BME280;58358;50.936;0.246;2023-02-26T11:53:04;102103.66;;;2.24;55.71
64632;BME280;58358;50.936;0.246;2023-02-26T11:55:28;102109.53;;;1.96;57.39
64632;BME280;58358;50.936;0.246;2023-02-26T11:57:52;102115.91;;;1.75;58.98
64632;BME280;58358;50.936;0.246;2023-02-26T12:00:19;102109.49;;;1.02;62.78
64632;BME280;58358;50.936;0.246;2023-02-26T12:02:42;102131.88;;;1.11;68.96
64632;BME280;58358;50.936;0.246;2023-02-26T12:05:13;102136.05;;;0.10;75.88
64632;BME280;58358;50.936;0.246;2023-02-26T12:07:32;102137.30;;;0.11;78.28
64632;BME280;58358;50.936;0.246;2023-02-26T12:09:58;102138.11;;;-0.37;79.37
64632;BME280;58358;50.936;0.246;2023-02-26T12:12:33;102141.29;;;-0.28;81.03
64632;BME280;58358;50.936;0.246;2023-02-26T12:14:59;102144.28;;;-0.51;84.45
64632;BME280;58358;50.936;0.246;2023-02-26T12:17:31;102132.02;;;0.21;86.03
64632;BME280;58358;50.936;0.246;2023-02-26T12:19:43;102135.18;;;-0.40;87.18
64632;BME280;58358;50.936;0.246;2023-02-26T12:22:15;102125.32;;;0.28;83.90
64632;BME280;58358;50.936;0.246;2023-02-26T12:24:45;102126.98;;;0.18;80.36
64632;BME280;58358;50.936;0.246;2023-02-26T12:27:00;102127.68;;;1.05;77.11
64632;BME280;58358;50.936;0.246;2023-02-26T12:29:37;102122.99;;;0.61;77.32
64632;BME280;58358;50.936;0.246;2023-02-26T12:34:28;102120.15;;;1.06;74.39
64632;BME280;58358;50.936;0.246;2023-02-26T12:36:48;102112.55;;;0.76;73.40
64632;BME280;58358;50.936;0.246;2023-02-26T12:39:08;102121.95;;;1.02;74.38
64632;BME280;58358;50.936;0.246;2023-02-26T12:41:38;102121.12;;;0.92;73.46
64632;BME280;58358;50.936;0.246;2023-02-26T12:43:53;102119.88;;;0.77;72.56
64632;BME280;58358;50.936;0.246;2023-02-26T12:46:32;102121.88;;;1.39;73.14